Time;durP1;ratioP1;P1;durP2;ratioP2;P2;SDS_P1;SDS_P2;PMS_P1;PMS_P2;Temp;Humidity;BMP_temperature;BMP_pressure;BME280_temperature;BME280_humidity;BME280_pressure;Samples;Min_cycle;Max_cycle;Signal;HPM_P1;HPM_P2
2023/10/25 00:01:16;;;;;;;14.25;7.10;;;;;;;;;;5106951;27;20051;-68
2023/10/25 00:03:42;;;;;;;10.02;5.90;;;;;;;;;;5128324;27;20138;-68
2023/10/25 00:06:08;;;;;;;11.98;5.80;;;;;;;;;;5108389;27;20122;-67
2023/10/25 00:08:33;;;;;;;10.77;5.63;;;10.00;99.90;;;;;;5119625;27;20115;-68
2023/10/25 00:11:07;;;;;;;11.57;5.40;;;;;;;;;;5105128;27;20104;-68
2023/10/25 00:13:33;;;;;;;12.43;5.63;;;;;;;;;;5103851;27;21012;-68
2023/10/25 00:15:59;;;;;;;10.38;5.15;;;9.90;99.90;;;;;;5120603;27;20043;-68
2023/10/25 00:18:25;;;;;;;10.48;5.28;;;;;;;;;;5107455;27;20046;-68
2023/10/25 00:20:52;;;;;;;14.43;6.28;;;;;;;;;;5106566;27;20043;-68
2023/10/25 00:23:19;;;;;;;9.45;5.68;;;;;;;;;;5108252;27;20085;-68
2023/10/25 00:25:45;;;;;;;10.65;5.05;;;;;;;;;;5103669;27;20393;-68
2023/10/25 00:28:11;;;;;;;11.90;5.70;;;;;;;;;;5105772;27;20109;-68
2023/10/25 00:30:38;;;;;;;12.52;5.82;;;;;;;;;;5107374;27;20066;-68
2023/10/25 00:33:04;;;;;;;13.75;5.75;;;;;;;;;;5102094;28;20039;-68
2023/10/25 00:35:29;;;;;;;10.77;5.35;;;9.70;99.90;;;;;;5123436;27;20062;-68
2023/10/25 00:37:55;;;;;;;11.05;5.80;;;;;;;;;;5081683;27;20067;-68
2023/10/25 00:40:21;;;;;;;10.38;5.10;;;;;;;;;;5093921;28;20044;-68
2023/10/25 00:42:47;;;;;;;11.73;5.70;;;9.70;99.90;;;;;;5094605;28;20490;-68
2023/10/25 00:45:13;;;;;;;11.88;6.05;;;;;;;;;;5101559;28;20052;-68
2023/10/25 00:47:41;;;;;;;11.52;5.50;;;;;;;;;;5121879;27;20047;-68
2023/10/25 00:50:07;;;;;;;9.27;5.47;;;;;;;;;;5080924;28;20035;-68
2023/10/25 00:52:33;;;;;;;13.35;5.18;;;;;;;;;;5089568;28;20060;-68
2023/10/25 00:54:59;;;;;;;9.65;4.43;;;;;;;;;;5117263;27;20035;-68
2023/10/25 00:57:25;;;;;;;11.05;5.78;;;9.70;99.90;;;;;;5123059;27;20418;-68
2023/10/25 00:59:52;;;;;;;11.43;5.93;;;;;;;;;;5103679;28;20050;-68
2023/10/25 01:02:18;;;;;;;12.43;5.50;;;;;;;;;;5071618;28;20044;-68
2023/10/25 01:04:44;;;;;;;10.38;5.28;;;;;;;;;;5099225;28;20417;-68
2023/10/25 01:07:10;;;;;;;10.82;6.15;;;;;;;;;;5100317;28;20054;-68
2023/10/25 01:09:36;;;;;;;9.85;6.10;;;;;;;;;;5077449;28;20040;-68
2023/10/25 01:12:02;;;;;;;12.32;5.75;;;;;;;;;;5095502;28;20057;-69
2023/10/25 01:14:28;;;;;;;15.77;5.55;;;;;;;;;;5117804;28;20047;-68
2023/10/25 01:16:54;;;;;;;14.70;5.85;;;;;;;;;;5103915;28;20388;-68
2023/10/25 01:19:20;;;;;;;11.95;6.72;;;;;;;;;;5105629;28;20055;-68
2023/10/25 01:21:46;;;;;;;13.18;5.65;;;;;;;;;;5107111;28;20043;-68
2023/10/25 01:24:12;;;;;;;9.57;6.00;;;;;;;;;;5087140;28;20043;-68
2023/10/25 01:26:38;;;;;;;15.05;6.35;;;;;;;;;;5119610;28;20506;-68
2023/10/25 01:29:04;;;;;;;11.70;6.00;;;;;;;;;;5125788;28;20055;-67
2023/10/25 01:31:30;;;;;;;11.20;6.60;;;;;;;;;;5104248;28;20051;-68
2023/10/25 01:33:56;;;;;;;21.25;7.85;;;;;;;;;;5103618;28;20058;-68
2023/10/25 01:36:22;;;;;;;12.60;6.32;;;;;;;;;;5123632;28;20045;-68
2023/10/25 01:38:48;;;;;;;12.93;6.15;;;;;;;;;;5126542;28;20039;-68
2023/10/25 01:41:17;;;;;;;11.52;6.88;;;;;;;;;;5126329;28;20043;-68
2023/10/25 01:43:43;;;;;;;12.75;6.25;;;;;;;;;;5120436;28;20436;-68
2023/10/25 01:46:09;;;;;;;12.88;6.78;;;;;;;;;;5102544;28;20097;-68
2023/10/25 01:48:38;;;;;;;11.65;5.70;;;;;;;;;;5125450;27;20043;-68
2023/10/25 01:51:09;;;;;;;10.65;6.85;;;;;;;;;;5129316;27;20043;-68
2023/10/25 01:53:35;;;;;;;13.32;6.80;;;;;;;;;;5104863;27;20054;-68
2023/10/25 01:56:01;;;;;;;14.68;6.90;;;9.50;99.90;;;;;;5110044;27;20039;-68
2023/10/25 01:58:27;;;;;;;14.07;7.18;;;;;;;;;;5103378;27;20808;-68
2023/10/25 02:00:53;;;;;;;14.48;6.45;;;;;;;;;;5125437;27;20035;-68
2023/10/25 02:03:19;;;;;;;18.67;7.57;;;9.60;99.90;;;;;;5129776;27;20066;-68
2023/10/25 02:05:45;;;;;;;18.17;6.82;;;;;;;;;;5130955;27;20046;-68
2023/10/25 02:08:11;;;;;;;13.30;7.65;;;;;;;;;;5128438;27;20470;-68
2023/10/25 02:10:37;;;;;;;11.88;7.13;;;9.40;99.90;;;;;;5112179;27;20047;-68
2023/10/25 02:13:03;;;;;;;15.27;6.60;;;;;;;;;;5105177;27;20117;-68
2023/10/25 02:15:29;;;;;;;16.42;8.32;;;;;;;;;;5104326;27;20187;-67
2023/10/25 02:21:09;;;;;;;18.80;8.13;;;9.30;99.90;;;;;;5092708;27;20046;-68
2023/10/25 02:23:35;;;;;;;19.88;8.20;;;;;;;;;;5121613;27;20498;-67
2023/10/25 02:26:01;;;;;;;16.98;8.55;;;;;;;;;;5088446;27;20500;-68
2023/10/25 02:28:27;;;;;;;17.10;9.57;;;9.40;99.90;;;;;;5103960;28;20131;-68
2023/10/25 02:30:53;;;;;;;18.25;9.95;;;;;;;;;;5127582;27;20121;-68
2023/10/25 02:33:19;;;;;;;19.30;9.02;;;;;;;;;;5129631;27;20045;-68
2023/10/25 02:35:45;;;;;;;17.80;9.18;;;9.40;99.90;;;;;;5107204;27;20046;-68
2023/10/25 02:38:10;;;;;;;13.65;8.93;;;;;;;;;;5121492;27;20510;-67
2023/10/25 02:40:37;;;;;;;18.90;9.23;;;;;;;;;;5103248;27;20047;-68
2023/10/25 02:43:02;;;;;;;14.68;8.73;;;9.40;99.90;;;;;;5092325;27;20126;-68
2023/10/25 02:45:28;;;;;;;19.23;9.45;;;;;;;;;;5110134;27;20138;-68
2023/10/25 02:47:56;;;;;;;21.35;10.35;;;9.20;99.90;;;;;;5116067;27;20048;-68
2023/10/25 02:50:22;;;;;;;20.55;10.88;;;;;;;;;;5104075;27;20051;-68
2023/10/25 02:52:48;;;;;;;15.65;8.98;;;;;;;;;;5099327;28;20041;-67
2023/10/25 02:55:17;;;;;;;19.98;9.73;;;9.30;99.90;;;;;;5108090;27;20369;-67
2023/10/25 02:57:43;;;;;;;20.98;10.35;;;;;;;;;;5106582;27;20530;-68
2023/10/25 03:00:10;;;;;;;16.20;10.93;;;;;;;;;;5122470;27;20049;-68
2023/10/25 03:02:39;;;;;;;21.40;10.75;;;;;;;;;;5103974;27;20039;-68
2023/10/25 03:05:05;;;;;;;16.95;11.15;;;;;;;;;;5113298;27;20502;-68
2023/10/25 03:07:31;;;;;;;17.65;10.52;;;;;;;;;;5125449;27;20043;-68
2023/10/25 03:09:57;;;;;;;19.88;10.77;;;;;;;;;;5107933;27;20031;-68
2023/10/25 03:12:23;;;;;;;20.20;11.20;;;;;;;;;;5128391;27;20046;-68
2023/10/25 03:14:49;;;;;;;21.10;10.52;;;;;;;;;;5119699;27;20032;-68
2023/10/25 03:17:15;;;;;;;17.05;10.30;;;;;;;;;;5100678;27;20086;-68
2023/10/25 03:19:41;;;;;;;19.50;10.25;;;9.10;99.90;;;;;;5103074;27;20399;-68
2023/10/25 03:22:06;;;;;;;20.25;11.73;;;;;;;;;;5103402;27;20054;-68
2023/10/25 03:24:33;;;;;;;17.65;9.40;;;;;;;;;;5107718;27;20037;-68
2023/10/25 03:26:58;;;;;;;18.83;10.63;;;9.20;99.90;;;;;;5105106;27;20141;-68
2023/10/25 03:29:25;;;;;;;17.83;8.95;;;;;;;;;;5110021;27;20059;-68
2023/10/25 03:31:53;;;;;;;19.75;9.60;;;;;;;;;;5103722;27;20438;-67
2023/10/25 03:34:19;;;;;;;15.55;9.55;;;9.00;99.90;;;;;;5108251;27;20043;-68
2023/10/25 03:36:46;;;;;;;19.55;9.00;;;;;;;;;;5107504;27;20038;-68
2023/10/25 03:39:15;;;;;;;16.40;9.15;;;;;;;;;;5086112;27;20058;-68
2023/10/25 03:41:42;;;;;;;19.88;8.93;;;;;;;;;;5120257;27;20399;-68
2023/10/25 03:44:08;;;;;;;18.05;9.05;;;;;;;;;;5115888;27;20104;-68
2023/10/25 03:46:33;;;;;;;16.30;9.18;;;8.80;99.90;;;;;;5108793;27;20047;-68
2023/10/25 03:48:59;;;;;;;13.52;8.75;;;;;;;;;;5107556;27;20067;-68
2023/10/25 03:51:25;;;;;;;13.75;8.30;;;;;;;;;;5091989;27;20039;-68
2023/10/25 03:53:51;;;;;;;16.83;8.57;;;;;;;;;;5097624;27;20042;-68
2023/10/25 03:56:18;;;;;;;13.98;8.40;;;;;;;;;;5123650;27;20146;-68
2023/10/25 03:58:43;;;;;;;17.75;8.80;;;8.80;99.90;;;;;;5097176;27;20486;-68
2023/10/25 04:01:09;;;;;;;16.10;7.78;;;8.80;99.90;;;;;;5103568;27;20043;-68
2023/10/25 04:03:35;;;;;;;16.65;8.43;;;8.70;99.90;;;;;;5118712;27;20406;-68
2023/10/25 04:06:00;;;;;;;19.33;8.70;;;;;;;;;;5100057;27;20050;-68
2023/10/25 04:08:27;;;;;;;12.85;8.10;;;;;;;;;;5100382;27;20050;-67
2023/10/25 04:10:53;;;;;;;21.60;9.27;;;;;;;;;;5097462;27;20092;-68
2023/10/25 04:13:20;;;;;;;13.77;8.30;;;8.70;99.90;;;;;;5103455;27;20122;-68
2023/10/25 04:15:59;;;;;;;16.98;8.63;;;;;;;;;;5101757;27;20050;-68
2023/10/25 04:18:26;;;;;;;19.45;8.32;;;;;;;;;;5115664;27;20116;-68
2023/10/25 04:20:52;;;;;;;15.13;8.57;;;;;;;;;;5108860;27;20185;-68
2023/10/25 04:23:19;;;;;;;18.35;9.07;;;;;;;;;;5122086;27;20047;-67
2023/10/25 04:25:45;;;;;;;17.98;8.65;;;8.60;99.90;;;;;;5103261;27;20046;-68
2023/10/25 04:28:11;;;;;;;12.80;8.07;;;;;;;;;;5101481;27;20488;-68
2023/10/25 04:30:37;;;;;;;12.60;7.40;;;;;;;;;;5105532;27;20114;-67
2023/10/25 04:33:03;;;;;;;13.05;8.25;;;;;;;;;;5101796;27;20582;-68
2023/10/25 04:35:29;;;;;;;14.85;7.72;;;;;;;;;;5098452;27;20043;-67
2023/10/25 04:37:55;;;;;;;14.50;8.05;;;8.60;99.90;;;;;;5094113;27;20040;-68
2023/10/25 04:40:21;;;;;;;13.05;7.68;;;;;;;;;;5094377;27;20036;-68
2023/10/25 04:42:50;;;;;;;13.63;8.02;;;;;;;;;;5102202;28;20043;-68
2023/10/25 04:45:16;;;;;;;14.18;7.50;;;8.60;99.90;;;;;;5091997;27;20099;-68
2023/10/25 04:47:42;;;;;;;13.20;6.68;;;;;;;;;;5093218;28;20517;-68
2023/10/25 04:50:08;;;;;;;14.63;7.55;;;;;;;;;;5116601;27;20059;-68
2023/10/25 04:52:34;;;;;;;15.05;7.07;;;;;;;;;;5095744;28;20522;-67
2023/10/25 04:55:00;;;;;;;16.33;6.75;;;;;;;;;;5117741;27;20117;-68
2023/10/25 04:57:26;;;;;;;21.00;8.00;;;8.50;99.90;;;;;;5096442;28;20042;-68
2023/10/25 04:59:52;;;;;;;12.95;7.20;;;;;;;;;;5118467;27;20039;-68
2023/10/25 05:02:19;;;;;;;14.20;6.80;;;;;;;;;;5097610;28;20407;-68
2023/10/25 05:04:45;;;;;;;16.08;7.28;;;8.50;99.90;;;;;;5099059;27;20051;-67
2023/10/25 05:07:11;;;;;;;13.43;7.07;;;8.50;99.90;;;;;;5113039;27;20036;-68
2023/10/25 05:09:37;;;;;;;12.35;7.10;;;;;;;;;;5081445;28;20046;-68
2023/10/25 05:12:04;;;;;;;16.63;6.63;;;;;;;;;;5083149;28;20044;-68
2023/10/25 05:14:30;;;;;;;12.40;6.82;;;;;;;;;;5063980;28;20048;-65
2023/10/25 05:16:56;;;;;;;10.43;6.60;;;;;;;;;;5085520;28;20050;-65
2023/10/25 05:19:22;;;;;;;10.07;6.43;;;;;;;;;;5088153;28;20451;-68
2023/10/25 05:21:52;;;;;;;14.32;6.82;;;;;;;;;;5062055;28;20043;-67
2023/10/25 05:24:18;;;;;;;11.13;6.68;;;;;;;;;;5066561;27;20058;-65
2023/10/25 05:26:44;;;;;;;15.00;7.07;;;;;;;;;;5090113;27;20466;-66
2023/10/25 05:29:11;;;;;;;15.00;6.88;;;;;;;;;;5096040;27;20058;-66
2023/10/25 05:31:40;;;;;;;13.43;6.60;;;;;;;;;;5074400;27;20040;-66
2023/10/25 05:34:07;;;;;;;15.25;7.20;;;;;;;;;;5091940;27;20035;-66
2023/10/25 05:36:33;;;;;;;12.57;6.05;;;;;;;;;;5076387;27;20156;-66
2023/10/25 05:39:00;;;;;;;13.23;6.47;;;;;;;;;;5096143;27;20406;-66
2023/10/25 05:41:28;;;;;;;13.10;6.88;;;;;;;;;;5092136;27;20047;-66
2023/10/25 05:44:10;;;;;;;10.68;6.35;;;;;;;;;;5089486;28;20631;-65
2023/10/25 05:46:37;;;;;;;13.68;6.70;;;;;;;;;;5102789;27;20039;-65
2023/10/25 05:49:03;;;;;;;11.75;6.07;;;;;;;;;;5096558;27;20043;-65
2023/10/25 05:51:29;;;;;;;17.85;5.88;;;;;;;;;;5101914;27;20288;-66
2023/10/25 05:53:55;;;;;;;15.52;6.90;;;;;;;;;;5100374;27;20035;-67
2023/10/25 05:56:25;;;;;;;16.92;6.97;;;;;;;;;;5072654;27;20487;-66
2023/10/25 05:58:52;;;;;;;10.50;6.82;;;;;;;;;;5097656;27;20055;-65
2023/10/25 06:01:20;;;;;;;10.23;7.30;;;;;;;;;;5097884;27;20104;-66
2023/10/25 06:03:46;;;;;;;14.35;7.38;;;;;;;;;;5093761;27;20043;-65
2023/10/25 06:06:13;;;;;;;11.82;7.45;;;;;;;;;;5088062;27;20176;-65
2023/10/25 06:08:39;;;;;;;13.05;7.22;;;;;;;;;;5087756;27;20044;-67
2023/10/25 06:11:05;;;;;;;15.65;7.55;;;;;;;;;;5094262;27;20063;-66
2023/10/25 06:13:32;;;;;;;12.90;7.57;;;;;;;;;;5094629;27;20039;-67
2023/10/25 06:15:58;;;;;;;12.52;6.78;;;;;;;;;;5091089;27;20107;-67
2023/10/25 06:18:24;;;;;;;23.10;9.02;;;;;;;;;;5092793;27;20580;-65
2023/10/25 06:20:49;;;;;;;15.77;7.55;;;;;;;;;;5082708;27;20051;-66
2023/10/25 06:23:15;;;;;;;14.82;7.60;;;;;;;;;;5078851;27;20083;-65
2023/10/25 06:25:41;;;;;;;12.85;6.63;;;;;;;;;;5077063;27;20046;-66
2023/10/25 06:28:07;;;;;;;11.23;7.18;;;;;;;;;;5079395;27;20044;-66
2023/10/25 06:30:34;;;;;;;15.45;7.53;;;;;;;;;;5074913;27;20147;-66
2023/10/25 06:33:00;;;;;;;13.93;7.60;;;;;;;;;;5089415;27;20045;-65
2023/10/25 06:35:26;;;;;;;16.00;6.82;;;;;;;;;;5094439;27;20124;-65
2023/10/25 06:37:52;;;;;;;14.07;7.65;;;;;;;;;;5080198;27;20502;-65
2023/10/25 06:40:18;;;;;;;11.60;7.03;;;9.80;99.90;;;;;;5092972;28;20055;-66
2023/10/25 06:42:44;;;;;;;15.73;8.60;;;;;;;;;;5099384;27;20039;-65
2023/10/25 06:45:14;;;;;;;13.70;7.38;;;;;;;;;;5114125;27;20490;-65
2023/10/25 06:47:41;;;;;;;11.65;6.82;;;;;;;;;;5111546;27;20089;-66
2023/10/25 06:50:08;;;;;;;16.88;7.43;;;;;;;;;;5114706;27;20035;-64
2023/10/25 06:55:08;;;;;;;17.45;7.35;;;;;;;;;;5088683;28;20063;-88
2023/10/25 06:57:35;;;;;;;12.00;6.95;;;;;;;;;;5043548;28;20670;-88
2023/10/25 07:00:03;;;;;;;13.70;6.32;;;;;;;;;;5014393;28;20036;-88
2023/10/25 07:02:28;;;;;;;17.58;7.68;;;;;;;;;;5014381;28;20037;-89
2023/10/25 07:05:01;;;;;;;13.05;6.68;;;;;;;;;;5014543;28;20514;-90
2023/10/25 07:07:29;;;;;;;17.35;8.30;;;;;;;;;;5033815;28;20419;-89
2023/10/25 07:09:55;;;;;;;12.23;7.20;;;;;;;;;;5034210;28;20073;-92
2023/10/25 07:12:23;;;;;;;12.52;7.85;;;;;;;;;;5019629;28;20162;-89
2023/10/25 07:14:49;;;;;;;13.77;7.53;;;;;;;;;;5015520;28;20040;-89
2023/10/25 07:17:15;;;;;;;12.80;7.18;;;;;;;;;;5031592;28;20048;-89
2023/10/25 07:19:43;;;;;;;16.60;7.78;;;;;;;;;;5018801;28;20408;-91
2023/10/25 07:22:10;;;;;;;14.55;7.90;;;;;;;;;;5017235;28;20666;-91
2023/10/25 07:24:41;;;;;;;18.48;8.40;;;;;;;;;;5031206;28;20045;-90
2023/10/25 07:27:07;;;;;;;12.45;6.85;;;;;;;;;;5044904;28;20067;-91
2023/10/25 07:29:36;;;;;;;16.05;8.45;;;;;;;;;;5034663;28;20040;-88
2023/10/25 07:32:02;;;;;;;14.48;7.80;;;;;;;;;;5029687;28;20059;-89
2023/10/25 07:34:31;;;;;;;12.15;7.05;;;;;;;;;;5023434;28;20036;-88
2023/10/25 07:36:58;;;;;;;12.88;7.47;;;;;;;;;;5050855;28;20099;-89
2023/10/25 07:39:24;;;;;;;15.65;9.90;;;;;;;;;;5033459;28;20131;-89
2023/10/25 07:41:50;;;;;;;15.77;7.75;;;;;;;;;;5026942;28;20147;-91
2023/10/25 07:44:16;;;;;;;12.60;7.15;;;;;;;;;;5021769;28;20048;-89
2023/10/25 07:46:42;;;;;;;17.05;7.55;;;;;;;;;;5035249;28;20749;-88
2023/10/25 07:49:08;;;;;;;11.18;7.65;;;;;;;;;;5040813;28;20047;-88
2023/10/25 07:51:36;;;;;;;13.73;7.32;;;;;;;;;;5033608;28;20132;-88
2023/10/25 07:54:02;;;;;;;9.65;6.90;;;;;;;;;;5040728;28;20091;-87
2023/10/25 07:56:28;;;;;;;15.60;7.80;;;;;;;;;;5037347;28;20131;-88
2023/10/25 07:58:54;;;;;;;10.07;7.15;;;;;;;;;;5030235;28;20052;-88
2023/10/25 08:01:20;;;;;;;10.68;7.65;;;;;;;;;;5042163;28;20040;-87
2023/10/25 08:03:46;;;;;;;15.00;7.18;;;;;;;;;;5039568;28;20051;-88
2023/10/25 08:06:12;;;;;;;8.32;6.50;;;;;;;;;;5029500;28;20866;-88
2023/10/25 08:08:39;;;;;;;11.75;7.20;;;;;;;;;;5016531;28;20098;-89
2023/10/25 08:11:07;;;;;;;9.85;7.20;;;;;;;;;;5022703;28;20444;-87
2023/10/25 08:13:34;;;;;;;12.27;7.68;;;;;;;;;;5017555;28;20508;-87
2023/10/25 08:16:03;;;;;;;13.00;7.88;;;;;;;;;;5013529;28;20536;-88
2023/10/25 08:18:30;;;;;;;11.55;6.60;;;;;;;;;;5023740;28;20041;-89
2023/10/25 08:20:56;;;;;;;11.45;6.13;;;;;;;;;;5031687;28;20045;-89
2023/10/25 08:23:22;;;;;;;19.38;7.70;;;;;;;;;;5009353;28;20086;-88
2023/10/25 08:25:50;;;;;;;13.85;8.32;;;;;;;;;;5032458;28;20110;-88
2023/10/25 08:28:16;;;;;;;13.10;7.13;;;;;;;;;;5022678;28;20483;-88
2023/10/25 08:30:42;;;;;;;11.00;7.07;;;;;;;;;;5030241;28;20598;-87
2023/10/25 08:33:08;;;;;;;11.93;7.45;;;;;;;;;;5028091;28;20036;-88
2023/10/25 08:35:35;;;;;;;12.13;6.68;;;;;;;;;;5038725;28;20799;-90
2023/10/25 08:38:01;;;;;;;13.23;6.40;;;;;;;;;;5028505;28;20151;-89
2023/10/25 08:40:27;;;;;;;11.00;6.85;;;;;;;;;;5038650;28;20123;-89
2023/10/25 08:42:53;;;;;;;10.43;6.78;;;;;;;;;;5033645;28;20040;-90
2023/10/25 08:45:19;;;;;;;16.08;7.45;;;;;;;;;;5027741;28;20072;-89
2023/10/25 08:47:45;;;;;;;15.00;7.10;;;;;;;;;;5026576;28;20045;-90
2023/10/25 08:50:19;;;;;;;14.98;7.97;;;;;;;;;;5033642;28;20051;-91
2023/10/25 08:52:45;;;;;;;13.20;6.68;;;;;;;;;;5014370;28;20047;-91
2023/10/25 08:55:11;;;;;;;13.48;7.15;;;;;;;;;;5023112;28;20045;-90
2023/10/25 08:57:38;;;;;;;13.82;7.50;;;;;;;;;;5032463;28;20040;-88
2023/10/25 09:00:07;;;;;;;11.73;7.25;;;;;;;;;;5017401;28;20550;-88
2023/10/25 09:02:37;;;;;;;15.98;7.90;;;;;;;;;;5029882;28;20133;-89
2023/10/25 09:05:03;;;;;;;11.70;7.57;;;;;;;;;;5019062;28;20072;-86
2023/10/25 09:07:29;;;;;;;13.00;7.75;;;;;;;;;;5025326;28;20036;-88
2023/10/25 09:09:55;;;;;;;12.82;6.50;;;;;;;;;;5030243;28;20771;-89
2023/10/25 09:12:25;;;;;;;13.90;7.15;;;;;;;;;;5032420;28;20036;-89
2023/10/25 09:14:51;;;;;;;11.77;7.35;;;;;;;;;;5035962;28;20055;-89
2023/10/25 09:17:17;;;;;;;16.77;8.18;;;;;;;;;;5035063;28;20067;-89
2023/10/25 09:19:44;;;;;;;17.23;8.52;;;;;;;;;;5015628;28;20057;-89
2023/10/25 09:22:25;;;;;;;11.05;6.80;;;;;;;;;;5016826;28;20041;-89
2023/10/25 09:24:51;;;;;;;15.82;7.65;;;;;;;;;;5038703;28;20051;-88
2023/10/25 09:27:19;;;;;;;11.93;7.53;;;;;;;;;;5022563;28;20047;-90
2023/10/25 09:29:48;;;;;;;15.70;8.02;;;;;;;;;;5041603;28;20037;-88
2023/10/25 09:32:14;;;;;;;16.33;7.03;;;;;;;;;;5024901;28;20508;-90
2023/10/25 09:34:40;;;;;;;9.70;6.32;;;;;;;;;;5024503;28;20492;-88
2023/10/25 09:37:06;;;;;;;11.90;6.10;;;;;;;;;;5024177;28;20040;-89
2023/10/25 09:39:36;;;;;;;11.13;6.30;;;;;;;;;;5027372;28;20048;-89
2023/10/25 09:42:03;;;;;;;8.13;5.55;;;11.30;99.90;;;;;;5014722;28;20052;-88
2023/10/25 09:44:31;;;;;;;12.15;6.57;;;;;;;;;;5037110;28;20062;-89
2023/10/25 09:46:59;;;;;;;10.70;6.65;;;;;;;;;;5017874;28;20093;-89
2023/10/25 09:49:29;;;;;;;9.88;7.07;;;;;;;;;;5017824;28;20060;-89
2023/10/25 09:52:06;;;;;;;12.50;6.18;;;;;;;;;;5017837;28;20051;-89
2023/10/25 09:54:33;;;;;;;10.15;6.70;;;;;;;;;;5022470;28;20102;-90
2023/10/25 09:57:02;;;;;;;10.98;6.10;;;;;;;;;;5038713;28;20141;-89
2023/10/25 09:59:28;;;;;;;11.07;5.72;;;;;;;;;;5035881;28;20751;-89
2023/10/25 10:01:55;;;;;;;9.25;5.72;;;;;;;;;;5025818;28;20052;-90
2023/10/25 10:04:41;;;;;;;12.20;6.10;;;;;;;;;;5015001;28;20040;-89
2023/10/25 10:07:28;;;;;;;10.93;5.78;;;;;;;;;;5010337;28;20052;-90
2023/10/25 10:10:18;;;;;;;12.02;5.88;;;;;;;;;;5008952;28;20491;-89
2023/10/25 10:12:44;;;;;;;9.68;5.30;;;;;;;;;;5014694;28;20106;-89
2023/10/25 10:15:14;;;;;;;12.70;6.53;;;;;;;;;;5028841;28;20817;-91
2023/10/25 10:17:44;;;;;;;9.35;5.07;;;;;;;;;;5041856;28;20800;-92
2023/10/25 10:20:29;;;;;;;10.55;5.95;;;;;;;;;;5019730;28;20044;-90
2023/10/25 10:23:02;;;;;;;8.75;5.60;;;;;;;;;;5022821;28;20037;-89
2023/10/25 10:25:45;;;;;;;12.43;5.28;;;;;;;;;;5037845;28;20078;-89
2023/10/25 10:28:12;;;;;;;9.95;5.22;;;;;;;;;;5028071;28;20098;-90
2023/10/25 10:30:38;;;;;;;8.98;4.65;;;;;;;;;;5014685;28;20070;-89
2023/10/25 10:33:07;;;;;;;9.95;4.75;;;;;;;;;;5032886;28;20029;-89
2023/10/25 10:35:33;;;;;;;10.60;5.43;;;;;;;;;;5036618;28;20079;-89
2023/10/25 10:38:00;;;;;;;9.68;5.10;;;;;;;;;;5018631;28;20071;-90
2023/10/25 10:40:26;;;;;;;9.50;5.45;;;;;;;;;;5019000;28;20534;-88
2023/10/25 10:42:52;;;;;;;11.77;5.15;;;;;;;;;;5023630;28;20416;-88
2023/10/25 10:45:19;;;;;;;6.82;5.28;;;;;;;;;;5027214;28;20578;-89
2023/10/25 10:48:04;;;;;;;11.45;5.32;;;;;;;;;;5030257;28;20488;-91
2023/10/25 10:50:30;;;;;;;12.60;5.38;;;;;;;;;;5024411;28;20560;-88
2023/10/25 10:52:57;;;;;;;11.93;5.72;;;;;;;;;;5040026;28;20059;-90
2023/10/25 10:55:24;;;;;;;12.85;5.05;;;12.00;99.90;;;;;;5031501;28;20120;-87
2023/10/25 10:57:51;;;;;;;12.57;5.60;;;;;;;;;;5030801;28;20036;-87
2023/10/25 11:00:18;;;;;;;6.78;5.10;;;;;;;;;;5031064;28;20492;-87
2023/10/25 11:02:47;;;;;;;12.95;7.53;;;;;;;;;;5034642;28;20504;-87
2023/10/25 11:05:15;;;;;;;13.52;5.60;;;;;;;;;;5018050;28;20556;-87
2023/10/25 11:07:41;;;;;;;12.63;6.03;;;;;;;;;;5027489;28;20036;-87
2023/10/25 11:10:08;;;;;;;8.80;5.25;;;;;;;;;;5042783;28;20045;-88
2023/10/25 11:12:34;;;;;;;13.30;5.82;;;;;;;;;;5042704;28;20047;-88
2023/10/25 11:15:04;;;;;;;9.85;5.78;;;;;;;;;;5034719;28;20036;-87
2023/10/25 11:17:33;;;;;;;9.95;4.53;;;;;;;;;;5025046;28;20045;-88
2023/10/25 11:20:00;;;;;;;10.57;5.80;;;;;;;;;;5012510;28;20044;-87
2023/10/25 11:22:26;;;;;;;8.82;5.07;;;;;;;;;;5022254;28;20041;-87
2023/10/25 11:24:52;;;;;;;8.90;4.63;;;;;;;;;;5027737;28;20592;-86
2023/10/25 11:27:19;;;;;;;9.48;4.95;;;;;;;;;;5027198;28;20613;-86
2023/10/25 11:29:45;;;;;;;11.20;4.95;;;;;;;;;;5017086;28;20037;-86
2023/10/25 11:32:12;;;;;;;7.25;4.25;;;;;;;;;;5037013;28;20129;-85
2023/10/25 11:34:41;;;;;;;13.30;4.53;;;;;;;;;;5020640;28;20129;-86
2023/10/25 11:37:07;;;;;;;9.25;4.35;;;;;;;;;;5017685;28;20125;-87
2023/10/25 11:39:35;;;;;;;12.18;4.60;;;;;;;;;;5027633;28;20051;-87
2023/10/25 11:42:01;;;;;;;9.80;4.68;;;;;;;;;;5041504;28;20629;-87
2023/10/25 11:44:27;;;;;;;7.72;4.53;;;;;;;;;;5012835;28;20783;-87
2023/10/25 11:46:58;;;;;;;7.68;4.10;;;;;;;;;;5025697;28;20056;-87
2023/10/25 11:49:24;;;;;;;6.65;3.97;;;;;;;;;;5019211;28;20491;-87
2023/10/25 11:51:53;;;;;;;7.88;4.13;;;;;;;;;;5034959;28;20080;-87
2023/10/25 11:54:19;;;;;;;6.72;3.65;;;;;;;;;;5043492;28;20053;-87
2023/10/25 11:56:47;;;;;;;10.48;4.60;;;;;;;;;;5019437;28;20847;-88
2023/10/25 11:59:13;;;;;;;12.15;4.50;;;;;;;;;;5020247;28;20048;-87
2023/10/25 12:01:39;;;;;;;12.13;4.25;;;;;;;;;;5026650;28;20044;-88
2023/10/25 12:04:05;;;;;;;10.88;4.60;;;;;;;;;;5029026;28;20474;-88
2023/10/25 12:06:31;;;;;;;7.43;4.40;;;;;;;;;;5021085;28;20837;-87
2023/10/25 12:08:59;;;;;;;7.90;4.70;;;;;;;;;;5023532;28;20118;-87
2023/10/25 12:11:25;;;;;;;8.85;5.47;;;;;;;;;;5009773;28;20088;-86
2023/10/25 12:13:51;;;;;;;12.38;5.25;;;;;;;;;;5036285;28;20072;-87
2023/10/25 12:16:17;;;;;;;7.18;4.80;;;;;;;;;;5029933;28;20083;-87
2023/10/25 12:18:43;;;;;;;10.05;5.25;;;;;;;;;;5038259;28;20060;-87
2023/10/25 12:21:09;;;;;;;9.73;4.72;;;;;;;;;;5035054;28;20055;-87
2023/10/25 12:23:35;;;;;;;11.13;5.05;;;;;;;;;;5032955;28;20098;-87
2023/10/25 12:26:02;;;;;;;9.35;5.43;;;;;;;;;;5027519;28;20058;-87
2023/10/25 12:28:28;;;;;;;7.75;5.65;;;;;;;;;;5043114;28;20474;-87
2023/10/25 12:30:54;;;;;;;12.57;5.32;;;;;;;;;;5021887;28;20044;-88
2023/10/25 12:33:21;;;;;;;9.43;5.38;;;;;;;;;;5033528;28;20075;-89
2023/10/25 12:35:48;;;;;;;9.88;4.78;;;;;;;;;;5022170;28;20048;-88
2023/10/25 12:38:14;;;;;;;9.65;5.57;;;;;;;;;;5019752;28;20110;-88
2023/10/25 12:40:40;;;;;;;10.75;5.60;;;;;;;;;;5035571;28;20048;-87
2023/10/25 12:43:06;;;;;;;10.90;5.95;;;;;;;;;;5037089;28;20151;-87
2023/10/25 12:45:32;;;;;;;12.68;6.50;;;;;;;;;;5039886;28;20685;-87
2023/10/25 12:47:58;;;;;;;8.55;5.72;;;;;;;;;;5028601;28;20040;-87
2023/10/25 12:50:24;;;;;;;11.93;6.65;;;;;;;;;;5027811;28;20040;-88
2023/10/25 12:52:51;;;;;;;11.30;6.43;;;;;;;;;;5030283;28;20048;-87
2023/10/25 12:55:17;;;;;;;10.52;6.13;;;;;;;;;;5035241;28;20152;-87
2023/10/25 12:57:43;;;;;;;10.85;6.78;;;;;;;;;;5020873;28;20579;-86
2023/10/25 13:00:09;;;;;;;11.05;5.72;;;;;;;;;;5034806;28;20047;-87
2023/10/25 13:02:35;;;;;;;7.22;6.10;;;;;;;;;;5039838;28;20045;-87
2023/10/25 13:05:02;;;;;;;11.63;6.20;;;;;;;;;;5041361;28;20048;-87
2023/10/25 13:07:28;;;;;;;9.85;6.18;;;;;;;;;;5031477;28;20468;-88
2023/10/25 13:10:04;;;;;;;8.27;5.22;;;;;;;;;;5018996;28;20143;-92
2023/10/25 13:12:33;;;;;;;10.98;6.53;;;;;;;;;;5015867;28;20138;-89
2023/10/25 13:14:59;;;;;;;11.57;6.05;;;;;;;;;;5005776;28;20052;-90
2023/10/25 13:17:25;;;;;;;8.45;6.10;;;;;;;;;;5030019;28;20040;-89
2023/10/25 13:19:51;;;;;;;9.35;5.93;;;;;;;;;;5006718;28;20455;-87
2023/10/25 13:22:17;;;;;;;12.38;6.05;;;;;;;;;;5026103;28;20084;-87
2023/10/25 13:24:43;;;;;;;10.02;6.15;;;;;;;;;;5028047;28;20822;-87
2023/10/25 13:27:09;;;;;;;10.27;6.35;;;;;;;;;;5033456;28;20044;-87
2023/10/25 13:29:35;;;;;;;10.55;6.38;;;;;;;;;;5014413;28;20041;-86
2023/10/25 13:32:01;;;;;;;11.70;6.55;;;;;;;;;;5018236;28;20041;-87
2023/10/25 13:34:27;;;;;;;9.95;6.47;;;;;;;;;;5029910;28;20122;-87
2023/10/25 13:36:53;;;;;;;11.05;6.97;;;;;;;;;;5017514;28;20757;-88
2023/10/25 13:39:19;;;;;;;10.85;7.43;;;;;;;;;;5017684;28;20127;-87
2023/10/25 13:41:45;;;;;;;11.43;6.70;;;;;;;;;;5019495;28;20135;-87
2023/10/25 13:44:14;;;;;;;10.02;6.43;;;;;;;;;;5017050;28;20055;-88
2023/10/25 13:46:40;;;;;;;12.38;6.78;;;;;;;;;;5022062;28;20048;-87
2023/10/25 13:49:06;;;;;;;10.55;6.68;;;;;;;;;;5035019;28;20064;-88
2023/10/25 13:51:32;;;;;;;13.45;6.63;;;;;;;;;;5011004;28;20186;-88
2023/10/25 13:53:58;;;;;;;10.50;6.68;;;;;;;;;;5026938;28;20048;-87
2023/10/25 13:56:24;;;;;;;11.75;6.68;;;;;;;;;;5019265;28;20107;-87
2023/10/25 13:58:50;;;;;;;11.00;6.88;;;;;;;;;;5030320;28;20049;-87
2023/10/25 14:01:22;;;;;;;10.40;7.55;;;;;;;;;;5030879;28;20188;-87
2023/10/25 14:03:49;;;;;;;12.52;7.82;;;;;;;;;;5027880;28;20130;-85
2023/10/25 14:06:16;;;;;;;13.50;7.40;;;;;;;;;;5038527;28;20044;-87
2023/10/25 14:08:42;;;;;;;11.88;7.43;;;;;;;;;;5015082;28;20125;-87
2023/10/25 14:11:08;;;;;;;12.52;7.57;;;;;;;;;;5018352;28;20144;-87
2023/10/25 14:13:34;;;;;;;11.00;7.35;;;;;;;;;;5023137;28;20685;-87
2023/10/25 14:16:00;;;;;;;15.25;7.40;;;;;;;;;;5017239;28;20056;-87
2023/10/25 14:18:25;;;;;;;11.52;6.68;;;;;;;;;;5037717;28;20503;-87
2023/10/25 14:20:51;;;;;;;12.15;7.05;;;;;;;;;;5034621;28;20044;-86
2023/10/25 14:23:18;;;;;;;11.38;6.75;;;;;;;;;;5032330;28;20044;-87
2023/10/25 14:25:44;;;;;;;16.80;8.15;;;;;;;;;;5031168;28;20774;-88